Portachuelo, Bolivia
Current Conditions -  °F | °C
As of 7:00 PM on Thursday 18 Dec 2014 (Local Time) from SLVR Reporting Station
Overcast Overcast  
Wind Chill: 77°   Ceiling: 2300
Heat Index: 78°   Visibility: 6mi
Dew Point: 75°   Wind: 3mph
Humidity: 94%   Direction: 50°NE
Pressure: 29.8"   Gusts: NA
Location:  17.36°S, 63.4°W
Report Text: SLVR 182300Z 05003KT 9999 BKN023 OVC070 25/24 Q1009
Loading
Personal Weather Stations






























Interactive Weather Map New forecast layout! Learn more

10-Day Weather Forecast

Advertisements
Track Severe Weather on mobile